Aviation Digital Data Service (ADDS)

Output produced by TAFs form (0748 UTC 25 March 2017)
found at http://www.aviationweather.gov/adds/tafs/
 
METAR text: OKBK 250700Z 01008KT 6000 SCT040 BKN080 18/15 Q1013 NOSIG
Conditions at: OKBK (KUWAIT INTL (MIL, KW) observed 0700 UTC 25 March 2017
Temperature: 18.0°C (64°F)
Dewpoint: 15.0°C (59°F) [RH = 83%]
Pressure (altimeter): 29.91 inches Hg (1013.0 mb)
Winds: from the N (10 degrees) at 9 MPH (8 knots; 4.2 m/s)
Visibility: 4 miles (6 km)
Ceiling: 8000 feet AGL
Clouds: scattered clouds at 4000 feet AGL
broken clouds at 8000 feet AGL
Weather: no significant weather observed at this time

Forecast for: OKBK (KUWAIT INTL (MIL, KW)
Text: TAF OKBK 250445Z 2506/2612 36010G20KT 6000 FEW040 SCT080
Forecast period: 0600 UTC 25 March 2017 to 1200 UTC 26 March 2017
Forecast type: FROM: standard forecast or significant change
Winds: from the N (360 degrees) at 12 MPH (10 knots; 5.2 m/s)
gusting to 23 MPH (20 knots; 10.4 m/s)
Visibility: 4 miles (6 km)
Clouds: few clouds at 4000 feet AGL
scattered clouds at 8000 feet AGL
Weather: no significant weather forecast for this period
Text: TEMPO 2506/2514 3000 TSRA/BLDU FEW030CB
Forecast period: 0600 to 1400 UTC 25 March 2017
Forecast type: TEMPORARY: The following changes expected for less than half the time period
Visibility: 1.86 miles (2.99 km)
Clouds: few clouds at 3000 feet AGL
Weather: BLDU TSRA  (blowing dust, rain associated with thunderstorm(s))